Time;durP1;ratioP1;P1;durP2;ratioP2;P2;SDS_P1;SDS_P2;PMS_P1;PMS_P2;Temp;Humidity;BMP_temperature;BMP_pressure;BME280_temperature;BME280_humidity;BME280_pressure;Samples;Min_cycle;Max_cycle;Signal;HPM_P1;HPM_P2
2023/08/28 00:01:43;;;;;;;4.83;1.40;;;;;;;-145.18;100.00;46638.91;5018993;28;20075;-63
2023/08/28 00:04:08;;;;;;;3.03;1.30;;;;;;;-145.18;100.00;46642.81;5014582;28;20076;-63
2023/08/28 00:06:34;;;;;;;4.33;1.30;;;;;;;-145.18;100.00;46642.81;5015217;28;20029;-63
2023/08/28 00:08:59;;;;;;;5.20;1.60;;;;;;;-145.18;100.00;46636.94;5014516;28;20393;-63
2023/08/28 00:11:25;;;;;;;2.83;1.53;;;;;;;-145.18;100.00;46638.91;5016763;28;20044;-63
2023/08/28 00:13:50;;;;;;;2.53;1.40;;;;;;;-145.18;100.00;46640.88;5015716;28;20026;-63
2023/08/28 00:16:15;;;;;;;10.13;1.90;;;;;;;-145.18;100.00;46640.88;5017581;28;20071;-63
2023/08/28 00:18:41;;;;;;;2.30;1.53;;;;;;;-145.18;100.00;46633.06;5015133;28;20060;-63
2023/08/28 00:21:07;;;;;;;4.03;1.90;;;;;;;-145.18;100.00;46640.88;5013983;28;20037;-63
2023/08/28 00:23:33;;;;;;;5.17;1.80;;;;;;;-145.18;100.00;46640.88;5013877;28;20512;-63
2023/08/28 00:25:59;;;;;;;5.33;1.70;;;;;;;-145.18;100.00;46638.91;5015322;28;20026;-62
2023/08/28 00:28:25;;;;;;;4.97;2.00;;;;;;;-145.18;100.00;46636.94;5026693;28;20076;-63
2023/08/28 00:30:50;;;;;;;6.47;2.30;;;;;;;-145.18;100.00;46635.00;5015834;28;20109;-63
2023/08/28 00:33:15;;;;;;;2.70;1.53;;;;;;;-145.18;100.00;46635.00;5029084;28;20041;-63
2023/08/28 00:35:42;;;;;;;8.70;1.87;;;;;;;-145.18;100.00;46636.94;5021231;28;20497;-62
2023/08/28 00:38:08;;;;;;;4.60;2.10;;;;;;;-145.18;100.00;46636.94;5027148;28;20026;-63
2023/08/28 00:40:39;;;;;;;5.20;1.77;;;;;;;-145.18;100.00;46636.94;5012762;28;20060;-63
2023/08/28 00:43:04;;;;;;;4.60;1.60;;;;;;;-145.18;100.00;46633.06;5028827;28;20074;-63
2023/08/28 00:45:30;;;;;;;6.53;2.33;;;;;;;-145.18;100.00;46633.06;5030466;28;20025;-63
2023/08/28 00:47:56;;;;;;;4.30;1.57;;;;;;;-145.18;100.00;46636.94;5025962;28;20021;-63
2023/08/28 00:50:21;;;;;;;8.10;2.53;;;;;;;-145.18;100.00;46635.00;5031811;28;20488;-63
2023/08/28 00:52:47;;;;;;;5.90;2.27;;;;;;;-145.18;100.00;46633.06;5023558;28;20551;-63
2023/08/28 00:55:13;;;;;;;3.13;1.87;;;;;;;-145.18;100.00;46635.00;5023130;28;20028;-63
2023/08/28 00:57:39;;;;;;;7.37;2.17;;;;;;;-145.18;100.00;46633.06;5028327;28;20467;-63
2023/08/28 01:00:06;;;;;;;3.93;2.00;;;;;;;-145.18;100.00;46633.06;5024768;28;20080;-63
2023/08/28 01:02:32;;;;;;;6.50;2.60;;;;;;;-145.18;100.00;46635.00;5023717;28;20021;-63
2023/08/28 01:04:58;;;;;;;5.63;2.47;;;;;;;-145.18;100.00;46631.09;5031915;28;20041;-63
2023/08/28 01:07:41;;;;;;;5.23;2.20;;;;;;;-145.18;100.00;46633.06;5032093;28;20030;-63
2023/08/28 01:10:18;;;;;;;3.77;2.20;;;;;;;-145.18;100.00;46633.06;5026944;28;20028;-63
2023/08/28 01:13:02;;;;;;;4.67;2.70;;;;;;;-145.18;100.00;46636.94;5032092;28;20167;-63
2023/08/28 01:15:30;;;;;;;4.80;1.90;;;;;;;-145.18;100.00;46636.94;5025462;28;20033;-63
2023/08/28 01:17:59;;;;;;;3.57;2.30;;;;;;;-145.18;100.00;46636.94;5027096;28;20039;-63
2023/08/28 01:20:27;;;;;;;5.13;2.60;;;;;;;-145.18;100.00;46635.00;5025846;28;20049;-63
2023/08/28 01:23:17;;;;;;;7.17;1.90;;;;;;;-145.18;100.00;46636.94;5031504;28;20060;-63
2023/08/28 01:25:42;;;;;;;4.67;1.67;;;;;;;-145.18;100.00;46631.09;5028902;28;20034;-63
2023/08/28 01:28:08;;;;;;;3.67;1.87;;;;;;;-145.18;100.00;46640.88;5027037;28;20044;-63
2023/08/28 01:30:34;;;;;;;3.30;2.23;;;;;;;-145.18;100.00;46633.06;5030461;28;20567;-63
2023/08/28 01:32:59;;;;;;;2.60;2.17;;;;;;;-145.18;100.00;46636.94;5025881;28;20033;-62
2023/08/28 01:35:27;;;;;;;6.43;3.00;;;;;;;-145.18;100.00;46635.00;5023826;28;20061;-63
2023/08/28 01:38:10;;;;;;;8.63;3.10;;;;;;;-145.18;100.00;46636.94;5026234;28;20029;-62
2023/08/28 01:40:59;;;;;;;3.13;2.53;;;;;;;-145.18;100.00;46636.94;5019797;28;20029;-62
2023/08/28 01:43:37;;;;;;;8.03;2.50;;;;;;;-145.18;100.00;46636.94;5013905;28;20108;-62
2023/08/28 01:46:04;;;;;;;3.33;2.40;;;;;;;-145.18;100.00;46633.06;5026196;28;20384;-62
2023/08/28 01:48:29;;;;;;;9.43;2.97;;;;;;;-145.18;100.00;46636.94;5018459;28;20032;-62
2023/08/28 01:50:55;;;;;;;7.13;2.50;;;;;;;-145.18;100.00;46635.00;5021446;28;20017;-63
2023/08/28 01:53:26;;;;;;;10.40;3.40;;;;;;;-145.18;100.00;46635.00;5031165;28;20112;-62
2023/08/28 01:56:07;;;;;;;4.57;3.40;;;;;;;-145.18;100.00;46638.91;5030051;28;20037;-62
2023/08/28 01:58:43;;;;;;;3.83;2.67;;;;;;;-145.18;100.00;46633.06;5025420;28;20489;-62
2023/08/28 02:01:09;;;;;;;3.70;2.87;;;;;;;-145.18;100.00;46633.06;5025821;28;20053;-70
2023/08/28 02:03:34;;;;;;;5.87;3.00;;;;;;;-145.18;100.00;46633.06;5021819;28;20026;-69
2023/08/28 02:06:00;;;;;;;5.73;2.70;;;;;;;-145.18;100.00;46633.06;5030647;28;20021;-69
2023/08/28 02:08:25;;;;;;;4.17;2.50;;;;;;;-145.18;100.00;46635.00;5029522;28;20547;-69
2023/08/28 02:10:54;;;;;;;3.47;2.53;;;;;;;-145.18;100.00;46633.06;5029897;28;20468;-69
2023/08/28 02:13:19;;;;;;;3.90;2.27;;;;;;;-145.18;100.00;46636.94;5029092;28;20563;-69
2023/08/28 02:15:45;;;;;;;2.80;1.90;;;;;;;-145.18;100.00;46631.09;5031024;28;20029;-69
2023/08/28 02:18:10;;;;;;;2.67;1.90;;;;;;;-145.18;100.00;46631.09;5029867;28;20393;-69
2023/08/28 02:20:35;;;;;;;4.03;2.03;;;;;;;-145.18;100.00;46640.88;5030606;28;20036;-69
2023/08/28 02:23:01;;;;;;;3.27;2.37;;;;;;;-145.18;100.00;46638.91;5028765;28;20030;-69
2023/08/28 02:25:26;;;;;;;2.90;1.77;;;;;;;-145.18;100.00;46636.94;5030493;28;20021;-69
2023/08/28 02:27:52;;;;;;;2.90;1.50;;;;;;;-145.18;100.00;46636.94;5018234;28;20141;-69
2023/08/28 02:30:17;;;;;;;2.60;1.97;;;;;;;-145.18;100.00;46636.94;5030929;28;20385;-69
2023/08/28 02:32:44;;;;;;;2.00;1.80;;;;;;;-145.18;100.00;46636.94;5031136;28;20026;-69
2023/08/28 02:35:10;;;;;;;2.97;2.27;;;;;;;-145.18;100.00;46638.91;5030459;28;20021;-69
2023/08/28 02:37:35;;;;;;;4.33;2.47;;;;;;;-145.18;100.00;46638.91;5031688;28;20391;-68
2023/08/28 02:40:01;;;;;;;3.30;2.37;;;;;;;-145.18;100.00;46636.94;5033830;28;20032;-69
2023/08/28 02:42:26;;;;;;;2.60;1.53;;;;;;;-145.18;100.00;46635.00;5034029;28;20038;-69
2023/08/28 02:44:51;;;;;;;2.43;1.77;;;;;;;-145.18;100.00;46635.00;5028076;28;20021;-69
2023/08/28 02:47:17;;;;;;;3.20;1.57;;;;;;;-145.18;100.00;46638.91;5026513;28;20029;-70
2023/08/28 02:49:42;;;;;;;3.10;2.03;;;;;;;-145.18;100.00;46638.91;5014425;28;20030;-69
2023/08/28 02:52:08;;;;;;;4.30;2.57;;;;;;;-145.18;100.00;46636.94;5014920;28;20505;-69
2023/08/28 02:54:33;;;;;;;2.83;1.70;;;;;;;-145.18;100.00;46633.06;5032840;28;20025;-69
2023/08/28 02:56:59;;;;;;;3.57;2.30;;;;;;;-145.18;100.00;46638.91;5034226;28;20121;-69
2023/08/28 02:59:24;;;;;;;4.63;2.47;;;;;;;-145.18;100.00;46640.88;5032404;28;20572;-69
2023/08/28 03:01:50;;;;;;;4.33;2.83;;;;;;;-145.18;100.00;46636.94;5033909;28;20025;-69
2023/08/28 03:04:15;;;;;;;3.37;2.43;;;;;;;-145.18;100.00;46633.06;5028495;28;20010;-69
2023/08/28 03:06:42;;;;;;;6.73;3.23;;;;;;;-145.18;100.00;46635.00;5025081;28;20021;-69
2023/08/28 03:09:08;;;;;;;12.10;3.27;;;;;;;-145.18;100.00;46638.91;5025376;28;20025;-62
2023/08/28 03:11:34;;;;;;;12.07;3.30;;;;;;;-145.18;100.00;46640.88;5027152;28;20018;-62
2023/08/28 03:13:59;;;;;;;5.23;3.07;;;;;;;-145.18;100.00;46636.94;5020987;28;20058;-63
2023/08/28 03:16:25;;;;;;;4.13;2.57;;;;;;;-145.18;100.00;46636.94;5032109;28;20076;-62
2023/08/28 03:18:50;;;;;;;4.43;2.40;;;;;;;-145.18;100.00;46636.94;5020240;28;20095;-62
2023/08/28 03:21:16;;;;;;;3.20;2.30;;;;;;;-145.18;100.00;46635.00;5020189;28;20042;-62
2023/08/28 03:23:41;;;;;;;3.13;2.07;;;;;;;-145.18;100.00;46636.94;5021579;28;20466;-62
2023/08/28 03:26:07;;;;;;;5.30;2.70;;;;;;;-145.18;100.00;46638.91;5019456;28;20037;-62
2023/08/28 03:28:32;;;;;;;4.93;2.00;;;;;;;-145.18;100.00;46640.88;5024205;28;20092;-62
2023/08/28 03:30:59;;;;;;;4.27;3.00;;;;;;;-145.18;100.00;46636.94;5026883;28;20069;-62
2023/08/28 03:33:25;;;;;;;5.20;2.73;;;;;;;-145.18;100.00;46635.00;5022833;28;20033;-62
2023/08/28 03:35:51;;;;;;;5.93;2.70;;;;;;;-145.18;100.00;46636.94;5032462;28;20025;-62
2023/08/28 03:38:17;;;;;;;3.40;2.67;;;;;;;-145.18;100.00;46635.00;5033586;28;20036;-62
2023/08/28 03:40:43;;;;;;;3.37;2.50;;;;;;;-145.18;100.00;46640.88;5031911;28;20053;-62
2023/08/28 03:43:09;;;;;;;3.43;2.60;;;;;;;-145.18;100.00;46635.00;5032113;28;20539;-62
2023/08/28 03:45:34;;;;;;;3.53;2.60;;;;;;;-145.18;100.00;46633.06;5030007;28;20014;-62
2023/08/28 03:48:00;;;;;;;4.17;2.63;;;;;;;-145.18;100.00;46631.09;5031381;28;20532;-62
2023/08/28 03:50:29;;;;;;;6.07;2.53;;;;;;;-145.18;100.00;46635.00;5027577;28;20032;-62
2023/08/28 03:52:56;;;;;;;3.23;2.47;;;;;;;-145.18;100.00;46636.94;5029251;28;20037;-62
2023/08/28 03:55:21;;;;;;;5.17;2.60;;;;;;;-145.18;100.00;46635.00;5023221;28;20057;-62
2023/08/28 03:57:47;;;;;;;6.23;2.73;;;;;;;-145.18;100.00;46633.06;5025309;28;20102;-62
2023/08/28 04:00:14;;;;;;;4.77;3.20;;;;;;;-145.18;100.00;46635.00;5032333;28;20061;-62
2023/08/28 04:02:40;;;;;;;4.70;3.00;;;;;;;-145.18;100.00;46633.06;5028050;28;20608;-62
2023/08/28 04:05:06;;;;;;;4.57;3.37;;;;;;;-145.18;100.00;46635.00;5028979;28;20021;-62
2023/08/28 04:07:32;;;;;;;4.43;3.77;;;;;;;-145.18;100.00;46635.00;5029319;28;20025;-62
2023/08/28 04:09:58;;;;;;;6.73;3.93;;;;;;;-145.18;100.00;46631.09;5017605;28;20041;-62
2023/08/28 04:12:23;;;;;;;5.73;4.17;;;;;;;-145.18;100.00;46633.06;5030780;28;20033;-62
2023/08/28 04:14:49;;;;;;;7.33;3.67;;;;;;;-145.18;100.00;46636.94;5017345;28;20038;-62
2023/08/28 04:17:15;;;;;;;5.30;3.00;;;;;;;-145.18;100.00;46633.06;5033237;28;20041;-62
2023/08/28 04:19:40;;;;;;;4.03;3.00;;;;;;;-145.18;100.00;46633.06;5030193;28;20030;-69
2023/08/28 04:22:06;;;;;;;4.30;3.20;;;;;;;-145.18;100.00;46633.06;5029919;28;20112;-68
2023/08/28 04:24:32;;;;;;;4.80;3.83;;;;;;;-145.18;100.00;46635.00;5026880;28;20033;-68
2023/08/28 04:26:58;;;;;;;8.07;4.23;;;;;;;-145.18;100.00;46631.09;5028042;28;20099;-68
2023/08/28 04:29:23;;;;;;;6.13;4.17;;;;;;;-145.18;100.00;46633.06;5029607;28;20044;-68
2023/08/28 04:31:49;;;;;;;6.20;4.73;;;;;;;-145.18;100.00;46636.94;5032622;28;20033;-69
2023/08/28 04:34:14;;;;;;;6.43;4.77;;;;;;;-145.18;100.00;46627.19;5027479;28;20034;-68
2023/08/28 04:36:40;;;;;;;6.50;4.63;;;;;;;-145.18;100.00;46633.06;5022863;28;20041;-68
2023/08/28 04:39:05;;;;;;;7.30;4.93;;;;;;;-145.18;100.00;46629.13;5015158;28;20037;-68
2023/08/28 04:41:30;;;;;;;9.60;5.47;;;;;;;-145.18;100.00;46638.91;5013821;28;20456;-67
2023/08/28 04:43:56;;;;;;;10.90;5.83;;;;;;;-145.18;100.00;46629.13;5021188;28;20075;-68
2023/08/28 04:46:22;;;;;;;8.30;5.60;;;;;;;-145.18;100.00;46633.06;5023399;28;20030;-68
2023/08/28 04:48:48;;;;;;;8.17;6.50;;;;;;;-145.18;100.00;46635.00;5018120;28;20095;-68
2023/08/28 04:51:14;;;;;;;11.43;6.07;;;;;;;-145.18;100.00;46629.13;5021509;28;20025;-69
2023/08/28 04:53:39;;;;;;;9.37;6.67;;;;;;;-145.18;100.00;46631.09;5020199;28;20047;-68
2023/08/28 04:56:05;;;;;;;9.87;6.60;;;;;;;-145.18;100.00;46627.19;5022839;28;20033;-68
2023/08/28 04:58:30;;;;;;;12.07;6.63;;;;;;;-145.18;100.00;46631.09;5031222;28;20041;-68
2023/08/28 05:00:55;;;;;;;8.73;6.63;;;;;;;-145.18;100.00;46631.09;5025313;28;20553;-68
2023/08/28 05:03:22;;;;;;;11.30;6.53;;;;;;;-145.18;100.00;46631.09;5031024;28;20087;-69
2023/08/28 05:05:47;;;;;;;9.43;6.73;;;;;;;-145.18;100.00;46635.00;5030637;28;20033;-68
2023/08/28 05:08:14;;;;;;;10.63;6.40;;;;;;;-145.18;100.00;46627.19;5029049;28;20037;-68
2023/08/28 05:10:40;;;;;;;9.97;6.50;;;;;;;-145.18;100.00;46631.09;5029056;28;20099;-68
2023/08/28 05:13:05;;;;;;;13.33;6.70;;;;;;;-145.18;100.00;46629.13;5028026;28;20037;-68
2023/08/28 05:15:30;;;;;;;8.83;6.90;;;;;;;-145.18;100.00;46629.13;5025237;28;20037;-68
2023/08/28 05:17:56;;;;;;;10.77;6.93;;;;;;;-145.18;100.00;46635.00;5030802;28;20105;-68
2023/08/28 05:20:21;;;;;;;8.17;6.57;;;;;;;-145.18;100.00;46631.09;5030251;28;20025;-69
2023/08/28 05:22:47;;;;;;;11.07;7.20;;;;;;;-145.18;100.00;46633.06;5028265;28;20029;-68
2023/08/28 05:25:12;;;;;;;12.10;7.50;;;;;;;-145.18;100.00;46629.13;5028800;28;20064;-68
2023/08/28 05:27:38;;;;;;;8.10;6.60;;;;;;;-145.18;100.00;46629.13;5028920;28;20032;-68
2023/08/28 05:30:03;;;;;;;7.67;6.37;;;;;;;-145.18;100.00;46633.06;5029279;28;20098;-68
2023/08/28 05:32:29;;;;;;;12.60;6.97;;;;;;;-145.18;100.00;46627.19;5029286;28;20033;-68
2023/08/28 05:34:57;;;;;;;12.93;6.93;;;;;;;-145.18;100.00;46631.09;5030789;28;20534;-68
2023/08/28 05:37:23;;;;;;;8.43;6.50;;;;;;;-145.18;100.00;46629.13;5027495;28;20146;-68
2023/08/28 05:39:50;;;;;;;10.17;7.33;;;;;;;-145.18;100.00;46629.13;5028086;28;20037;-70
2023/08/28 05:42:15;;;;;;;10.60;7.13;;;;;;;-145.18;100.00;46629.13;5016803;28;20397;-68
2023/08/28 05:44:42;;;;;;;8.30;6.53;;;;;;;-145.18;100.00;46623.28;5020858;28;20035;-68
2023/08/28 05:47:08;;;;;;;11.07;7.87;;;;;;;-145.18;100.00;46629.13;5030198;28;20121;-68
2023/08/28 05:49:33;;;;;;;8.90;6.33;;;;;;;-145.18;100.00;46625.22;5019909;28;20110;-68
2023/08/28 05:51:58;;;;;;;11.43;6.57;;;;;;;-145.18;100.00;46625.22;5020357;28;20474;-68
2023/08/28 05:54:24;;;;;;;14.27;7.60;;;;;;;-145.18;100.00;46621.31;5013681;28;20034;-69
2023/08/28 05:56:49;;;;;;;12.60;7.57;;;;;;;-145.18;100.00;46625.22;5026709;28;20080;-68
2023/08/28 05:59:14;;;;;;;12.90;7.47;;;;;;;-145.18;100.00;46625.22;5013192;28;20030;-69
2023/08/28 06:01:40;;;;;;;11.80;6.83;;;;;;;-145.18;100.00;46621.31;5014061;28;20442;-68
2023/08/28 06:04:05;;;;;;;10.77;7.97;;;;;;;-145.18;100.00;46623.28;5020166;28;20034;-69
2023/08/28 06:06:31;;;;;;;11.97;6.83;;;;;;;-145.18;100.00;46621.31;5030682;28;20045;-68
2023/08/28 06:08:56;;;;;;;10.20;7.50;;;;;;;-145.18;100.00;46621.31;5011549;28;20402;-69
2023/08/28 06:11:21;;;;;;;10.53;7.17;;;;;;;-145.18;100.00;46625.22;5033685;28;20037;-68
2023/08/28 06:13:47;;;;;;;9.47;6.87;;;;;;;-145.18;100.00;46623.28;5015671;28;20053;-68
2023/08/28 06:16:12;;;;;;;9.40;6.57;;;;;;;-145.18;100.00;46621.31;5028509;28;20037;-68
2023/08/28 06:18:38;;;;;;;10.33;7.07;;;;;;;-145.18;100.00;46619.38;5022270;28;20057;-68
2023/08/28 06:21:03;;;;;;;9.23;7.10;;;;;;;-145.18;100.00;46621.31;5025475;28;20029;-69
2023/08/28 06:23:29;;;;;;;12.13;7.60;;;;;;;-145.18;100.00;46619.38;5028068;28;20057;-69
2023/08/28 06:25:55;;;;;;;9.50;7.07;;;;;;;-145.18;100.00;46619.38;5028351;28;20041;-68
2023/08/28 06:28:20;;;;;;;9.57;7.20;;;;;;;-145.18;100.00;46625.22;5023681;28;20161;-69
2023/08/28 06:30:46;;;;;;;10.60;7.70;;;;;;;-145.18;100.00;46619.38;5027536;28;20041;-69
2023/08/28 06:33:11;;;;;;;12.20;7.83;;;;;;;-145.18;100.00;46617.41;5037567;28;20414;-68
2023/08/28 06:35:37;;;;;;;12.40;7.50;;;;;;;-145.18;100.00;46619.38;5028386;28;20031;-68
2023/08/28 06:38:02;;;;;;;18.00;7.40;;;;;;;-145.18;100.00;46617.41;5029712;28;20071;-69
2023/08/28 06:40:28;;;;;;;9.83;6.97;;;;;;;-145.18;100.00;46621.31;5032638;28;20033;-61
2023/08/28 06:42:53;;;;;;;10.80;6.77;;;;;;;-145.18;100.00;46617.41;5031058;28;20029;-61
2023/08/28 06:45:18;;;;;;;10.03;6.83;;;;;;;-145.18;100.00;46617.41;5028558;28;20033;-61
2023/08/28 06:47:44;;;;;;;13.27;7.20;;;;;;;-145.18;100.00;46619.38;5030594;28;20025;-61
2023/08/28 06:50:09;;;;;;;10.97;6.43;;;;;;;-145.18;100.00;46621.31;5032467;28;20539;-61
2023/08/28 06:52:36;;;;;;;11.83;6.47;;;;;;;-145.18;100.00;46621.31;5030385;28;20026;-61
2023/08/28 06:55:02;;;;;;;10.03;6.20;;;;;;;-145.18;100.00;46623.28;5026716;28;20036;-62
2023/08/28 06:57:28;;;;;;;9.10;6.23;;;;;;;-145.18;100.00;46619.38;5020239;28;20509;-61
2023/08/28 06:59:53;;;;;;;8.57;5.57;;;;;;;-145.18;100.00;46621.31;5030280;28;20025;-61
2023/08/28 07:02:19;;;;;;;9.70;6.10;;;;;;;-145.18;100.00;46625.22;5020810;28;20034;-62
2023/08/28 07:04:44;;;;;;;7.57;5.93;;;;;;;-145.18;100.00;46625.22;5034310;28;20095;-62
2023/08/28 07:07:10;;;;;;;7.17;5.50;;;;;;;-145.18;100.00;46623.28;5020492;28;20424;-62
2023/08/28 07:09:38;;;;;;;10.03;6.00;;;;;;;-145.18;100.00;46627.19;5025772;28;20025;-62
2023/08/28 07:12:05;;;;;;;7.57;5.43;;;;;;;-145.18;100.00;46627.19;5023797;28;20501;-61
2023/08/28 07:14:30;;;;;;;6.83;5.53;;;;;;;-145.18;100.00;46625.22;5026765;28;20030;-61
2023/08/28 07:16:55;;;;;;;6.33;5.67;;;;;;;-145.18;100.00;46631.09;5029054;28;20473;-62
2023/08/28 07:19:21;;;;;;;8.93;5.23;;;;;;;-145.18;100.00;46623.28;5023456;28;20053;-62
2023/08/28 07:21:46;;;;;;;11.97;5.90;;;;;;;-145.18;100.00;46627.19;5023186;28;20032;-62
2023/08/28 07:24:12;;;;;;;8.43;6.03;;;;;;;-145.18;100.00;46627.19;5027113;28;20477;-61
2023/08/28 07:26:37;;;;;;;10.47;5.47;;;;;;;-145.18;100.00;46623.28;5030634;28;20576;-61
2023/08/28 07:29:02;;;;;;;6.63;5.93;;;;;;;-145.18;100.00;46623.28;5019187;28;20033;-61
2023/08/28 07:31:28;;;;;;;8.70;6.37;;;;;;;-145.18;100.00;46623.28;5022016;28;20037;-62
2023/08/28 07:33:54;;;;;;;9.40;6.47;;;;;;;-145.18;100.00;46619.38;5023096;28;20025;-61
2023/08/28 07:36:23;;;;;;;8.00;6.27;;;;;;;-145.18;100.00;46623.28;5029703;28;20038;-62
2023/08/28 07:38:49;;;;;;;11.30;7.20;;;;;;;-145.18;100.00;46625.22;5017346;28;20026;-61
2023/08/28 07:41:16;;;;;;;8.07;6.37;;;;;;;-145.18;100.00;46621.31;5029791;28;20037;-62
2023/08/28 07:43:42;;;;;;;9.40;6.13;;;;;;;-145.18;100.00;46619.38;5021071;28;20400;-61
2023/08/28 07:46:08;;;;;;;6.93;6.20;;;;;;;-145.18;100.00;46625.22;5029014;28;20014;-62
2023/08/28 07:48:33;;;;;;;8.63;6.30;;;;;;;-145.18;100.00;46625.22;5016624;28;20473;-61
2023/08/28 07:50:59;;;;;;;8.77;5.67;;;;;;;-145.18;100.00;46621.31;5030532;28;20620;-62
2023/08/28 07:53:24;;;;;;;7.83;5.67;;;;;;;-145.18;100.00;46627.19;5022401;28;20033;-62
2023/08/28 07:55:49;;;;;;;5.90;5.17;;;;;;;-145.18;100.00;46631.09;5017500;28;20029;-61
2023/08/28 07:58:15;;;;;;;7.87;5.10;;;;;;;-145.18;100.00;46635.00;5025740;28;20021;-62
2023/08/28 08:00:42;;;;;;;10.10;5.30;;;;;;;-145.18;100.00;46633.06;5036095;28;20107;-62
2023/08/28 08:03:07;;;;;;;6.23;5.63;;;;;;;-145.18;100.00;46635.00;5021802;28;20040;-62
2023/08/28 08:05:33;;;;;;;8.13;4.87;;;;;;;-145.18;100.00;46635.00;5020911;28;20022;-62
2023/08/28 08:07:59;;;;;;;8.00;4.43;;;;;;;-145.18;100.00;46640.88;5023218;28;20567;-62
2023/08/28 08:10:25;;;;;;;5.87;4.10;;;;;;;-145.18;100.00;46646.72;5023534;28;20036;-62
2023/08/28 08:12:50;;;;;;;5.77;4.13;;;;;;;-145.18;100.00;46644.78;5017600;28;20057;-62
2023/08/28 08:15:15;;;;;;;6.83;3.50;;;;;;;-145.18;100.00;46650.63;5024429;28;20036;-62
2023/08/28 08:17:41;;;;;;;7.80;3.20;;;;;;;-145.18;100.00;46654.53;5028429;28;20408;-62
2023/08/28 08:20:10;;;;;;;3.00;2.23;;;;;;;-145.18;100.00;46656.50;5023329;28;20033;-62
2023/08/28 08:22:37;;;;;;;3.70;2.37;;;;;;;-145.18;100.00;46666.25;5019879;28;20059;-62
2023/08/28 08:25:03;;;;;;;1.70;1.33;;;;;;;-145.18;100.00;46670.16;5036852;28;20021;-62
2023/08/28 08:27:29;;;;;;;5.33;2.43;;;;;;;-145.18;100.00;46674.06;5031465;28;20041;-62
2023/08/28 08:29:54;;;;;;;2.87;2.63;;;;;;;-145.18;100.00;46670.16;5029575;28;20128;-63
2023/08/28 08:32:20;;;;;;;4.30;2.20;;;;;;;-145.18;100.00;46676.03;5034638;28;20041;-62
2023/08/28 08:34:45;;;;;;;5.47;2.27;;;;;;;-145.18;100.00;46676.03;5027965;28;20072;-62
2023/08/28 08:37:10;;;;;;;4.70;2.40;;;;;;;-145.18;100.00;46679.94;5031887;28;20450;-62
2023/08/28 08:39:36;;;;;;;2.73;1.80;;;;;;;-145.18;100.00;46679.94;5032232;28;20029;-62
2023/08/28 08:42:01;;;;;;;3.13;1.83;;;;;;;-145.18;100.00;46685.78;5023196;28;20505;-62
2023/08/28 08:44:27;;;;;;;2.73;1.70;;;;;;;-145.18;100.00;46685.78;5025000;28;20025;-62
2023/08/28 08:46:54;;;;;;;3.07;2.00;;;;;;;-145.18;100.00;46687.75;5028075;28;20103;-62
2023/08/28 08:49:25;;;;;;;0.97;0.90;;;;;;;-145.18;100.00;46687.75;5028206;28;20548;-62
2023/08/28 08:51:55;;;;;;;4.13;1.80;;;;;;;-145.18;100.00;46674.06;5029022;28;20022;-62
2023/08/28 08:54:25;;;;;;;2.40;1.70;;;;;;;-145.18;100.00;46687.75;5026666;28;20041;-62
2023/08/28 08:57:00;;;;;;;2.00;1.70;;;;;;;-145.18;100.00;46660.41;5031680;28;20029;-62
2023/08/28 08:59:26;;;;;;;2.50;1.70;;;;;;;-145.18;100.00;46578.34;5034952;28;20040;-69
2023/08/28 09:01:51;;;;;;;2.80;1.60;;;;;;;-145.18;100.00;46564.69;5033172;28;20057;-68
2023/08/28 09:04:18;;;;;;;2.20;1.20;;;;;;;-145.18;100.00;46564.69;5030194;28;20508;-68
2023/08/28 09:06:46;;;;;;;1.83;1.30;;;;;;;-145.18;100.00;46580.31;5040501;28;20018;-68
2023/08/28 09:09:11;;;;;;;3.30;1.30;;;;;;;-145.18;100.00;46582.25;5037248;28;20468;-68
2023/08/28 09:11:39;;;;;;;1.70;1.13;;;;;;;-145.18;100.00;46574.44;5034384;28;20116;-68
2023/08/28 09:14:05;;;;;;;1.93;1.23;;;;;;;-145.18;100.00;46578.34;5038404;28;20036;-68
2023/08/28 09:16:33;;;;;;;6.00;1.40;;;;;;;-145.18;100.00;46566.63;5039775;28;20021;-69
2023/08/28 09:18:59;;;;;;;1.53;1.03;;;;;;;-145.18;100.00;46570.53;5024692;28;20033;-68
2023/08/28 09:21:24;;;;;;;4.00;1.60;;;;;;;-145.18;100.00;46609.59;5014637;28;20091;-68
2023/08/28 09:23:50;;;;;;;1.77;0.83;;;;;;;-145.18;100.00;46642.81;5041811;28;20055;-68
2023/08/28 09:26:21;;;;;;;2.83;1.20;;;;;;;-145.18;100.00;46670.16;5029115;28;20079;-68
2023/08/28 09:29:00;;;;;;;1.53;1.13;;;;;;;-145.18;100.00;46672.13;5014917;28;20026;-69
2023/08/28 09:31:29;;;;;;;1.27;1.00;;;;;;;-145.18;100.00;46625.22;5016448;28;20069;-69
2023/08/28 09:33:54;;;;;;;2.13;1.30;;;;;;;-145.18;100.00;46576.41;5040155;28;20111;-69
2023/08/28 09:36:20;;;;;;;2.20;1.40;;;;;;;-145.18;100.00;46564.69;5022588;28;20021;-68
2023/08/28 09:38:45;;;;;;;1.53;1.20;;;;;;;-145.18;100.00;46570.53;5013206;28;20038;-68
2023/08/28 09:41:11;;;;;;;1.27;1.17;;;;;;;-145.18;100.00;46574.44;5029388;28;20363;-69
2023/08/28 09:43:36;;;;;;;2.33;1.30;;;;;;;-145.18;100.00;46570.53;5020509;28;20033;-69
2023/08/28 09:46:04;;;;;;;2.07;1.30;;;;;;;-145.18;100.00;46586.16;5028248;28;20732;-69
2023/08/28 09:48:34;;;;;;;2.13;1.47;;;;;;;-145.18;100.00;46586.16;5036285;28;20489;-69
2023/08/28 09:51:04;;;;;;;3.70;1.13;;;;;;;-145.18;100.00;46586.16;5036022;28;20109;-68
2023/08/28 09:53:30;;;;;;;3.10;1.37;;;;;;;-145.18;100.00;46582.25;5025940;28;20510;-69
2023/08/28 09:55:57;;;;;;;3.03;1.20;;;;;;;-145.18;100.00;46582.25;5026788;28;20032;-68
2023/08/28 09:58:24;;;;;;;1.57;1.17;;;;;;;-145.18;100.00;46576.41;5043039;28;20035;-69
2023/08/28 10:00:51;;;;;;;1.30;1.13;;;;;;;-145.18;100.00;46590.06;5032058;28;20104;-68
2023/08/28 10:03:17;;;;;;;1.47;1.30;;;;;;;-145.18;100.00;46574.44;5020186;28;20037;-69
2023/08/28 10:05:47;;;;;;;1.47;1.00;;;;;;;-145.18;100.00;46572.50;5024637;28;20032;-69
2023/08/28 10:08:15;;;;;;;2.13;1.37;;;;;;;-145.18;100.00;46578.34;5026621;28;20490;-68
2023/08/28 10:10:45;;;;;;;2.77;1.00;;;;;;;-145.18;100.00;46582.25;5019670;28;20779;-62
2023/08/28 10:13:13;;;;;;;1.83;1.20;;;;;;;-145.18;100.00;46582.25;5019499;28;20025;-63
2023/08/28 10:15:44;;;;;;;2.07;1.20;;;;;;;-145.18;100.00;46582.25;5037408;28;20032;-62
2023/08/28 10:18:17;;;;;;;3.53;1.30;;;;;;;-145.18;100.00;46590.06;5030490;28;20530;-62
2023/08/28 10:20:44;;;;;;;2.37;1.20;;;;;;;-145.18;100.00;46623.28;5025093;28;20437;-62
2023/08/28 10:23:10;;;;;;;1.60;1.13;;;;;;;-145.18;100.00;46619.38;5033428;28;20040;-63
2023/08/28 10:25:36;;;;;;;1.97;1.30;;;;;;;-145.18;100.00;46613.50;5024343;28;20061;-62
2023/08/28 10:28:03;;;;;;;2.87;2.10;;;;;;;-145.18;100.00;46633.06;5020263;28;20057;-62
2023/08/28 10:30:29;;;;;;;5.33;2.27;;;;;;;-145.18;100.00;46615.47;5037802;28;20032;-62
2023/08/28 10:32:56;;;;;;;2.73;1.80;;;;;;;-145.18;100.00;47004.19;5009689;28;20073;-62
2023/08/28 10:35:22;;;;;;;2.37;1.73;;;;;;;-145.18;100.00;47144.84;5031847;28;20477;-63
2023/08/28 10:37:49;;;;;;;1.90;1.37;;;;;;;-145.18;100.00;47150.72;5036420;28;20440;-63
2023/08/28 10:40:17;;;;;;;3.23;1.57;;;;;;;-145.18;100.00;47068.66;5039176;28;20380;-63
2023/08/28 10:42:44;;;;;;;1.70;1.20;;;;;;;-145.18;100.00;47076.47;5027723;28;20179;-63
2023/08/28 10:45:09;;;;;;;2.37;1.50;;;;;;;-145.18;100.00;47060.84;5021346;28;20033;-63
2023/08/28 10:47:35;;;;;;;2.57;1.70;;;;;;;-145.18;100.00;47062.81;5022387;28;20020;-63
2023/08/28 10:50:01;;;;;;;2.10;1.70;;;;;;;-145.18;100.00;47109.69;5036444;28;20449;-62
2023/08/28 10:52:28;;;;;;;6.60;1.80;;;;;;;-145.18;100.00;47094.06;5034296;28;20029;-62
2023/08/28 10:54:57;;;;;;;2.03;1.60;;;;;;;-145.18;100.00;47064.75;5026260;28;20040;-63
2023/08/28 10:57:27;;;;;;;2.13;1.80;;;;;;;-145.18;100.00;47070.63;5027743;28;20037;-62
2023/08/28 10:59:53;;;;;;;2.83;1.33;;;;;;;-145.18;100.00;47127.28;5029055;28;20381;-63
2023/08/28 11:02:19;;;;;;;5.60;1.83;;;;;;;-145.18;100.00;47121.41;5017467;28;20108;-63
2023/08/28 11:04:45;;;;;;;1.60;1.43;;;;;;;-145.18;100.00;47140.94;5032302;28;20025;-62